Portada
METAR-TAF:

METAR-TAF

Aeroports :

Pakse, Laos

latitud: 15-08-02N, longitud: 105-46-55E, altitud: 107 m

Observació

L'informe es va fer fa 29 minuts, a les 00:00 UTC
Vent 2 kt del Est
Temperatura 23°C
Humitat 69%
Pressió 1017 hPa
Visibilitat: 8000 m
Escasses núvols a una alçada de 2400 ft
Núvols disperses a una alçada de 10000 ft

METAR: VLPS 210000Z 09002KT 8000 FEW024 SCT100 23/17 Q1017 NOSIG

Hora: 07:29 (00:29 UTC)

Pronòstic

L'informe es va fer fa 1 hora i 29 minuts, a les 23:00 UTC
Pronòstic vàlid del 21 a les 00 UTC al 21 a les 24 UTC
Vent 4 kt del Sud/Sud-Est
Visibilitat 10 km o més
Escasses núvols a una alçada de 2400 ft
Núvols disperses a una alçada de 20000 ft

TAF: VLPS 202300Z 2100/2124 16004KT 9999 FEW024 SCT200

Observacions i pronòstics meteorològics de més de 4000 aeroports (METAR i TAF).

Les estacions disponibles són els punts grocs i vermells al mapa.

Posi el ratolí al punt desitjat per veure el nom de l'estació.

Feu clic per veure les observacions i els pronòstics meteorològics.

Per canviar el mapa: feu clic els botons verds amb una creu de color negre per apropar; al botó verd amb un guió per allunyar la imatge; o en les fletxes verdes per a mapes adjacents.


METAR-TAF: